sensor_id;sensor_type;location;lat;lon;timestamp;pressure;altitude;pressure_sealevel;temperature;humidity
79465;BME280;68932;47.410;8.232;2023-04-29T00:00:41;96659.44;;;14.73;81.63
79465;BME280;68932;47.410;8.232;2023-04-29T00:03:08;96652.81;;;14.70;81.65
79465;BME280;68932;47.410;8.232;2023-04-29T00:05:35;96650.27;;;14.67;81.61
79465;BME280;68932;47.410;8.232;2023-04-29T00:08:02;96648.06;;;14.66;81.66
79465;BME280;68932;47.410;8.232;2023-04-29T00:10:29;96641.64;;;14.67;81.72
79465;BME280;68932;47.410;8.232;2023-04-29T00:12:56;96638.99;;;14.67;81.81
79465;BME280;68932;47.410;8.232;2023-04-29T00:15:23;96635.60;;;14.67;81.88
79465;BME280;68932;47.410;8.232;2023-04-29T00:17:49;96637.19;;;14.69;81.90
79465;BME280;68932;47.410;8.232;2023-04-29T00:20:17;96639.34;;;14.71;81.96
79465;BME280;68932;47.410;8.232;2023-04-29T00:22:44;96640.60;;;14.70;81.96
79465;BME280;68932;47.410;8.232;2023-04-29T00:25:11;96641.23;;;14.68;81.89
79465;BME280;68932;47.410;8.232;2023-04-29T00:27:38;96641.42;;;14.65;81.91
79465;BME280;68932;47.410;8.232;2023-04-29T00:30:08;96642.09;;;14.66;81.98
79465;BME280;68932;47.410;8.232;2023-04-29T00:32:35;96645.20;;;14.66;81.88
79465;BME280;68932;47.410;8.232;2023-04-29T00:35:03;96638.57;;;14.66;81.86
79465;BME280;68932;47.410;8.232;2023-04-29T00:37:30;96633.25;;;14.64;81.86
79465;BME280;68932;47.410;8.232;2023-04-29T00:39:57;96634.23;;;14.63;81.89
79465;BME280;68932;47.410;8.232;2023-04-29T00:42:25;96634.89;;;14.63;82.01
79465;BME280;68932;47.410;8.232;2023-04-29T00:44:52;96632.02;;;14.64;82.11
79465;BME280;68932;47.410;8.232;2023-04-29T00:47:19;96627.26;;;14.64;82.23
79465;BME280;68932;47.410;8.232;2023-04-29T00:49:46;96622.27;;;14.64;82.22
79465;BME280;68932;47.410;8.232;2023-04-29T00:52:13;96619.41;;;14.65;82.17
79465;BME280;68932;47.410;8.232;2023-04-29T00:54:40;96616.98;;;14.64;82.20
79465;BME280;68932;47.410;8.232;2023-04-29T00:57:07;96618.44;;;14.64;82.21
79465;BME280;68932;47.410;8.232;2023-04-29T00:59:35;96621.27;;;14.64;82.21
79465;BME280;68932;47.410;8.232;2023-04-29T01:02:03;96622.39;;;14.65;82.30
79465;BME280;68932;47.410;8.232;2023-04-29T01:04:30;96624.23;;;14.66;82.19
79465;BME280;68932;47.410;8.232;2023-04-29T01:07:06;96622.39;;;14.67;82.21
79465;BME280;68932;47.410;8.232;2023-04-29T01:09:49;96621.89;;;14.69;82.10
79465;BME280;68932;47.410;8.232;2023-04-29T01:12:25;96622.64;;;14.68;82.21
79465;BME280;68932;47.410;8.232;2023-04-29T01:15:07;96615.88;;;14.69;82.12
79465;BME280;68932;47.410;8.232;2023-04-29T01:17:41;96623.11;;;14.71;82.09
79465;BME280;68932;47.410;8.232;2023-04-29T01:20:10;96629.48;;;14.70;82.04
79465;BME280;68932;47.410;8.232;2023-04-29T01:22:37;96628.45;;;14.68;82.04
79465;BME280;68932;47.410;8.232;2023-04-29T01:25:05;96627.13;;;14.69;82.05
79465;BME280;68932;47.410;8.232;2023-04-29T01:27:36;96627.23;;;14.70;82.06
79465;BME280;68932;47.410;8.232;2023-04-29T01:30:12;96630.31;;;14.71;82.02
79465;BME280;68932;47.410;8.232;2023-04-29T01:32:52;96624.83;;;14.67;81.99
79465;BME280;68932;47.410;8.232;2023-04-29T01:35:37;96624.27;;;14.68;82.13
79465;BME280;68932;47.410;8.232;2023-04-29T01:38:14;96622.78;;;14.69;82.15
79465;BME280;68932;47.410;8.232;2023-04-29T01:40:48;96624.52;;;14.69;82.33
79465;BME280;68932;47.410;8.232;2023-04-29T01:43:18;96631.31;;;14.70;82.34
79465;BME280;68932;47.410;8.232;2023-04-29T01:45:45;96632.52;;;14.72;82.48
79465;BME280;68932;47.410;8.232;2023-04-29T01:48:12;96633.57;;;14.72;82.59
79465;BME280;68932;47.410;8.232;2023-04-29T01:50:40;96630.02;;;14.72;82.66
79465;BME280;68932;47.410;8.232;2023-04-29T01:53:06;96629.14;;;14.74;82.59
79465;BME280;68932;47.410;8.232;2023-04-29T01:55:33;96630.23;;;14.76;82.58
79465;BME280;68932;47.410;8.232;2023-04-29T01:58:00;96631.67;;;14.78;82.61
79465;BME280;68932;47.410;8.232;2023-04-29T02:00:27;96633.49;;;14.80;82.64
79465;BME280;68932;47.410;8.232;2023-04-29T02:02:54;96629.95;;;14.82;82.58
79465;BME280;68932;47.410;8.232;2023-04-29T02:05:21;96619.84;;;14.84;82.51
79465;BME280;68932;47.410;8.232;2023-04-29T02:07:48;96619.81;;;14.86;82.49
79465;BME280;68932;47.410;8.232;2023-04-29T02:10:15;96617.42;;;14.88;82.35
79465;BME280;68932;47.410;8.232;2023-04-29T02:12:42;96616.27;;;14.88;82.35
79465;BME280;68932;47.410;8.232;2023-04-29T02:15:10;96618.73;;;14.90;82.31
79465;BME280;68932;47.410;8.232;2023-04-29T02:17:37;96619.39;;;14.91;82.21
79465;BME280;68932;47.410;8.232;2023-04-29T02:20:06;96617.22;;;14.92;82.09
79465;BME280;68932;47.410;8.232;2023-04-29T02:22:33;96619.98;;;14.90;82.14
79465;BME280;68932;47.410;8.232;2023-04-29T02:25:00;96618.70;;;14.89;82.29
79465;BME280;68932;47.410;8.232;2023-04-29T02:27:27;96615.21;;;14.88;82.28
79465;BME280;68932;47.410;8.232;2023-04-29T02:29:54;96617.06;;;14.89;82.35
79465;BME280;68932;47.410;8.232;2023-04-29T02:32:21;96619.88;;;14.92;82.25
79465;BME280;68932;47.410;8.232;2023-04-29T02:34:48;96621.77;;;14.92;82.09
79465;BME280;68932;47.410;8.232;2023-04-29T02:37:15;96622.75;;;14.91;82.04
79465;BME280;68932;47.410;8.232;2023-04-29T02:39:42;96622.65;;;14.88;81.92
79465;BME280;68932;47.410;8.232;2023-04-29T02:42:09;96617.23;;;14.84;81.94
79465;BME280;68932;47.410;8.232;2023-04-29T02:44:35;96623.13;;;14.81;82.05
79465;BME280;68932;47.410;8.232;2023-04-29T02:47:02;96628.22;;;14.81;82.06
79465;BME280;68932;47.410;8.232;2023-04-29T02:49:29;96629.02;;;14.80;82.09
79465;BME280;68932;47.410;8.232;2023-04-29T02:51:56;96631.81;;;14.81;82.18
79465;BME280;68932;47.410;8.232;2023-04-29T02:54:23;96636.00;;;14.81;82.07
79465;BME280;68932;47.410;8.232;2023-04-29T02:56:50;96633.84;;;14.82;82.19
79465;BME280;68932;47.410;8.232;2023-04-29T02:59:17;96631.55;;;14.84;82.10
79465;BME280;68932;47.410;8.232;2023-04-29T03:01:44;96635.79;;;14.85;82.06
79465;BME280;68932;47.410;8.232;2023-04-29T03:04:11;96627.85;;;14.85;82.00
79465;BME280;68932;47.410;8.232;2023-04-29T03:06:38;96628.95;;;14.85;81.97
79465;BME280;68932;47.410;8.232;2023-04-29T03:09:05;96627.39;;;14.85;81.86
79465;BME280;68932;47.410;8.232;2023-04-29T03:11:32;96623.27;;;14.83;81.87
79465;BME280;68932;47.410;8.232;2023-04-29T03:13:58;96620.38;;;14.82;81.74
79465;BME280;68932;47.410;8.232;2023-04-29T03:16:25;96623.11;;;14.83;81.73
79465;BME280;68932;47.410;8.232;2023-04-29T03:18:52;96619.55;;;14.81;81.67
79465;BME280;68932;47.410;8.232;2023-04-29T03:21:19;96615.48;;;14.80;81.63
79465;BME280;68932;47.410;8.232;2023-04-29T03:23:46;96613.56;;;14.77;81.53
79465;BME280;68932;47.410;8.232;2023-04-29T03:26:13;96612.24;;;14.74;81.46
79465;BME280;68932;47.410;8.232;2023-04-29T03:28:40;96610.67;;;14.70;81.41
79465;BME280;68932;47.410;8.232;2023-04-29T03:31:06;96601.50;;;14.66;81.42
79465;BME280;68932;47.410;8.232;2023-04-29T03:33:33;96598.68;;;14.64;81.51
79465;BME280;68932;47.410;8.232;2023-04-29T03:36:00;96596.06;;;14.62;81.56
79465;BME280;68932;47.410;8.232;2023-04-29T03:38:27;96597.45;;;14.60;81.48
79465;BME280;68932;47.410;8.232;2023-04-29T03:40:54;96598.48;;;14.58;81.42
79465;BME280;68932;47.410;8.232;2023-04-29T03:43:21;96600.96;;;14.56;81.47
79465;BME280;68932;47.410;8.232;2023-04-29T03:45:48;96600.45;;;14.54;81.50
79465;BME280;68932;47.410;8.232;2023-04-29T03:48:15;96601.30;;;14.54;81.60
79465;BME280;68932;47.410;8.232;2023-04-29T03:50:42;96605.67;;;14.54;81.56
79465;BME280;68932;47.410;8.232;2023-04-29T03:53:09;96606.25;;;14.54;81.47
79465;BME280;68932;47.410;8.232;2023-04-29T03:55:36;96607.21;;;14.53;81.39
79465;BME280;68932;47.410;8.232;2023-04-29T03:58:03;96613.61;;;14.52;81.44
79465;BME280;68932;47.410;8.232;2023-04-29T04:00:31;96610.82;;;14.52;81.38
79465;BME280;68932;47.410;8.232;2023-04-29T04:02:58;96606.72;;;14.50;81.38
79465;BME280;68932;47.410;8.232;2023-04-29T04:05:26;96606.46;;;14.47;81.38
79465;BME280;68932;47.410;8.232;2023-04-29T04:07:53;96603.73;;;14.45;81.38
79465;BME280;68932;47.410;8.232;2023-04-29T04:10:20;96601.84;;;14.44;81.43
79465;BME280;68932;47.410;8.232;2023-04-29T04:12:46;96605.72;;;14.44;81.48
79465;BME280;68932;47.410;8.232;2023-04-29T04:15:13;96610.13;;;14.44;81.36
79465;BME280;68932;47.410;8.232;2023-04-29T04:17:40;96616.63;;;14.46;81.41
79465;BME280;68932;47.410;8.232;2023-04-29T04:20:10;96617.80;;;14.47;81.44
79465;BME280;68932;47.410;8.232;2023-04-29T04:22:37;96627.16;;;14.49;81.43
79465;BME280;68932;47.410;8.232;2023-04-29T04:25:06;96626.90;;;14.49;81.48
79465;BME280;68932;47.410;8.232;2023-04-29T04:27:33;96631.23;;;14.51;81.36
79465;BME280;68932;47.410;8.232;2023-04-29T04:30:00;96632.05;;;14.51;81.32
79465;BME280;68932;47.410;8.232;2023-04-29T04:32:27;96633.07;;;14.52;81.29
79465;BME280;68932;47.410;8.232;2023-04-29T04:34:54;96637.27;;;14.52;81.36
79465;BME280;68932;47.410;8.232;2023-04-29T04:37:21;96635.61;;;14.51;81.26
79465;BME280;68932;47.410;8.232;2023-04-29T04:39:48;96639.00;;;14.50;81.21
79465;BME280;68932;47.410;8.232;2023-04-29T04:42:15;96639.45;;;14.47;81.08
79465;BME280;68932;47.410;8.232;2023-04-29T04:44:42;96637.65;;;14.44;80.97
79465;BME280;68932;47.410;8.232;2023-04-29T04:47:09;96642.20;;;14.40;80.87
79465;BME280;68932;47.410;8.232;2023-04-29T04:49:36;96644.24;;;14.36;80.95
79465;BME280;68932;47.410;8.232;2023-04-29T04:52:03;96644.65;;;14.33;80.92
79465;BME280;68932;47.410;8.232;2023-04-29T04:54:30;96648.09;;;14.30;80.82
79465;BME280;68932;47.410;8.232;2023-04-29T04:56:57;96651.64;;;14.26;80.65
79465;BME280;68932;47.410;8.232;2023-04-29T04:59:24;96653.88;;;14.23;80.66
79465;BME280;68932;47.410;8.232;2023-04-29T05:01:51;96652.66;;;14.20;80.71
79465;BME280;68932;47.410;8.232;2023-04-29T05:04:18;96655.17;;;14.20;80.79
79465;BME280;68932;47.410;8.232;2023-04-29T05:06:45;96654.47;;;14.20;80.91
79465;BME280;68932;47.410;8.232;2023-04-29T05:09:12;96657.08;;;14.21;80.89
79465;BME280;68932;47.410;8.232;2023-04-29T05:11:38;96658.34;;;14.20;80.90
79465;BME280;68932;47.410;8.232;2023-04-29T05:14:05;96661.33;;;14.22;80.92
79465;BME280;68932;47.410;8.232;2023-04-29T05:16:32;96665.99;;;14.23;81.04
79465;BME280;68932;47.410;8.232;2023-04-29T05:18:59;96669.48;;;14.26;81.07
79465;BME280;68932;47.410;8.232;2023-04-29T05:21:26;96672.89;;;14.29;81.24
79465;BME280;68932;47.410;8.232;2023-04-29T05:23:53;96674.23;;;14.32;81.23
79465;BME280;68932;47.410;8.232;2023-04-29T05:26:20;96675.89;;;14.33;81.26
79465;BME280;68932;47.410;8.232;2023-04-29T05:28:47;96673.98;;;14.37;81.34
79465;BME280;68932;47.410;8.232;2023-04-29T05:31:13;96677.38;;;14.43;81.41
79465;BME280;68932;47.410;8.232;2023-04-29T05:33:40;96678.73;;;14.47;81.43
79465;BME280;68932;47.410;8.232;2023-04-29T05:36:08;96679.48;;;14.51;81.22
79465;BME280;68932;47.410;8.232;2023-04-29T05:38:35;96681.80;;;14.55;81.24
79465;BME280;68932;47.410;8.232;2023-04-29T05:41:02;96685.18;;;14.61;81.21
79465;BME280;68932;47.410;8.232;2023-04-29T05:43:29;96687.36;;;14.66;81.20
79465;BME280;68932;47.410;8.232;2023-04-29T05:45:56;96687.48;;;14.71;81.18
79465;BME280;68932;47.410;8.232;2023-04-29T05:48:23;96688.60;;;14.74;81.31
79465;BME280;68932;47.410;8.232;2023-04-29T05:50:50;96696.02;;;14.78;81.38
79465;BME280;68932;47.410;8.232;2023-04-29T05:53:16;96700.04;;;14.79;81.45
79465;BME280;68932;47.410;8.232;2023-04-29T05:55:44;96699.59;;;14.80;81.56
79465;BME280;68932;47.410;8.232;2023-04-29T05:58:12;96701.22;;;14.84;81.65
79465;BME280;68932;47.410;8.232;2023-04-29T06:00:38;96698.81;;;14.91;81.78
79465;BME280;68932;47.410;8.232;2023-04-29T06:03:05;96696.98;;;14.98;81.69
79465;BME280;68932;47.410;8.232;2023-04-29T06:05:32;96698.80;;;15.03;81.60
79465;BME280;68932;47.410;8.232;2023-04-29T06:07:59;96697.36;;;15.09;81.43
79465;BME280;68932;47.410;8.232;2023-04-29T06:10:26;96699.35;;;15.11;81.30
79465;BME280;68932;47.410;8.232;2023-04-29T06:12:53;96699.02;;;15.13;81.50
79465;BME280;68932;47.410;8.232;2023-04-29T06:15:20;96698.01;;;15.18;81.69
79465;BME280;68932;47.410;8.232;2023-04-29T06:17:47;96696.17;;;15.25;81.59
79465;BME280;68932;47.410;8.232;2023-04-29T06:20:14;96697.66;;;15.30;81.42
79465;BME280;68932;47.410;8.232;2023-04-29T06:22:41;96692.20;;;15.32;81.22
79465;BME280;68932;47.410;8.232;2023-04-29T06:25:09;96692.90;;;15.36;81.29
79465;BME280;68932;47.410;8.232;2023-04-29T06:27:36;96702.13;;;15.41;81.30
79465;BME280;68932;47.410;8.232;2023-04-29T06:30:04;96704.70;;;15.46;81.16
79465;BME280;68932;47.410;8.232;2023-04-29T06:32:31;96705.42;;;15.48;80.73
79465;BME280;68932;47.410;8.232;2023-04-29T06:34:58;96709.13;;;15.46;80.61
79465;BME280;68932;47.410;8.232;2023-04-29T06:37:25;96712.87;;;15.43;80.59
79465;BME280;68932;47.410;8.232;2023-04-29T06:39:51;96714.40;;;15.44;80.83
79465;BME280;68932;47.410;8.232;2023-04-29T06:42:18;96715.85;;;15.44;80.86
79465;BME280;68932;47.410;8.232;2023-04-29T06:44:45;96716.27;;;15.45;80.91
79465;BME280;68932;47.410;8.232;2023-04-29T06:47:12;96721.10;;;15.47;80.95
79465;BME280;68932;47.410;8.232;2023-04-29T06:49:39;96721.48;;;15.48;80.74
79465;BME280;68932;47.410;8.232;2023-04-29T06:52:06;96721.05;;;15.49;80.55
79465;BME280;68932;47.410;8.232;2023-04-29T06:54:33;96723.12;;;15.51;80.47
79465;BME280;68932;47.410;8.232;2023-04-29T06:57:00;96717.94;;;15.54;80.13
79465;BME280;68932;47.410;8.232;2023-04-29T06:59:26;96716.27;;;15.57;80.09
79465;BME280;68932;47.410;8.232;2023-04-29T07:01:53;96717.48;;;15.61;80.05
79465;BME280;68932;47.410;8.232;2023-04-29T07:04:20;96714.42;;;15.66;79.84
79465;BME280;68932;47.410;8.232;2023-04-29T07:06:47;96712.91;;;15.73;79.86
79465;BME280;68932;47.410;8.232;2023-04-29T07:09:14;96714.52;;;15.81;80.18
79465;BME280;68932;47.410;8.232;2023-04-29T07:11:41;96716.73;;;15.91;80.56
79465;BME280;68932;47.410;8.232;2023-04-29T07:14:08;96716.92;;;15.99;80.23
79465;BME280;68932;47.410;8.232;2023-04-29T07:16:35;96719.38;;;16.07;80.12
79465;BME280;68932;47.410;8.232;2023-04-29T07:19:02;96722.71;;;16.14;80.18
79465;BME280;68932;47.410;8.232;2023-04-29T07:21:29;96724.73;;;16.21;79.87
79465;BME280;68932;47.410;8.232;2023-04-29T07:23:56;96725.06;;;16.27;79.83
79465;BME280;68932;47.410;8.232;2023-04-29T07:26:22;96729.89;;;16.32;79.86
79465;BME280;68932;47.410;8.232;2023-04-29T07:28:49;96730.10;;;16.38;79.46
79465;BME280;68932;47.410;8.232;2023-04-29T07:31:16;96736.03;;;16.45;79.44
79465;BME280;68932;47.410;8.232;2023-04-29T07:33:44;96737.14;;;16.50;79.22
79465;BME280;68932;47.410;8.232;2023-04-29T07:36:11;96737.35;;;16.55;79.24
79465;BME280;68932;47.410;8.232;2023-04-29T07:38:38;96735.88;;;16.61;79.31
79465;BME280;68932;47.410;8.232;2023-04-29T07:41:05;96736.25;;;16.67;79.15
79465;BME280;68932;47.410;8.232;2023-04-29T07:43:32;96732.35;;;16.72;78.85
79465;BME280;68932;47.410;8.232;2023-04-29T07:45:58;96734.56;;;16.77;78.37
79465;BME280;68932;47.410;8.232;2023-04-29T07:48:25;96737.45;;;16.83;78.23
79465;BME280;68932;47.410;8.232;2023-04-29T07:50:52;96738.00;;;16.88;77.97
79465;BME280;68932;47.410;8.232;2023-04-29T07:53:19;96740.24;;;16.92;78.31
79465;BME280;68932;47.410;8.232;2023-04-29T07:55:46;96742.98;;;16.97;78.39
79465;BME280;68932;47.410;8.232;2023-04-29T07:58:13;96746.48;;;17.03;78.06
79465;BME280;68932;47.410;8.232;2023-04-29T08:00:40;96747.49;;;17.09;77.60
79465;BME280;68932;47.410;8.232;2023-04-29T08:03:07;96745.36;;;17.14;77.57
79465;BME280;68932;47.410;8.232;2023-04-29T08:05:34;96746.90;;;17.21;77.47
79465;BME280;68932;47.410;8.232;2023-04-29T08:08:01;96742.98;;;17.27;77.20
79465;BME280;68932;47.410;8.232;2023-04-29T08:10:28;96739.91;;;17.34;77.22
79465;BME280;68932;47.410;8.232;2023-04-29T08:12:55;96743.16;;;17.41;76.93
79465;BME280;68932;47.410;8.232;2023-04-29T08:15:22;96742.17;;;17.44;76.28
79465;BME280;68932;47.410;8.232;2023-04-29T08:17:49;96741.19;;;17.52;75.70
79465;BME280;68932;47.410;8.232;2023-04-29T08:20:16;96743.88;;;17.67;75.58
79465;BME280;68932;47.410;8.232;2023-04-29T08:22:43;96744.84;;;17.73;74.88
79465;BME280;68932;47.410;8.232;2023-04-29T08:25:11;96743.91;;;17.77;73.91
79465;BME280;68932;47.410;8.232;2023-04-29T08:27:38;96745.48;;;17.79;74.16
79465;BME280;68932;47.410;8.232;2023-04-29T08:30:07;96743.10;;;17.76;74.55
79465;BME280;68932;47.410;8.232;2023-04-29T08:32:34;96746.08;;;17.75;74.68
79465;BME280;68932;47.410;8.232;2023-04-29T08:35:01;96744.66;;;17.76;74.68
79465;BME280;68932;47.410;8.232;2023-04-29T08:37:28;96744.41;;;17.83;74.19
79465;BME280;68932;47.410;8.232;2023-04-29T08:39:55;96741.80;;;17.82;73.73
79465;BME280;68932;47.410;8.232;2023-04-29T08:42:32;96740.55;;;17.84;73.62
79465;BME280;68932;47.410;8.232;2023-04-29T08:45:00;96736.83;;;17.89;73.24
79465;BME280;68932;47.410;8.232;2023-04-29T08:47:29;96739.02;;;17.91;73.06
79465;BME280;68932;47.410;8.232;2023-04-29T08:49:56;96734.73;;;17.93;73.23
79465;BME280;68932;47.410;8.232;2023-04-29T08:52:24;96735.83;;;18.00;73.98
79465;BME280;68932;47.410;8.232;2023-04-29T08:54:51;96732.42;;;18.09;72.60
79465;BME280;68932;47.410;8.232;2023-04-29T08:57:18;96728.52;;;18.18;72.42
79465;BME280;68932;47.410;8.232;2023-04-29T08:59:47;96725.73;;;18.26;72.38
79465;BME280;68932;47.410;8.232;2023-04-29T09:02:16;96726.50;;;18.36;71.81
79465;BME280;68932;47.410;8.232;2023-04-29T09:04:49;96725.61;;;18.47;71.75
79465;BME280;68932;47.410;8.232;2023-04-29T09:07:18;96723.73;;;18.56;70.99
79465;BME280;68932;47.410;8.232;2023-04-29T09:09:46;96720.31;;;18.67;70.92
79465;BME280;68932;47.410;8.232;2023-04-29T09:12:14;96723.75;;;18.81;70.68
79465;BME280;68932;47.410;8.232;2023-04-29T09:14:41;96721.36;;;18.92;70.19
79465;BME280;68932;47.410;8.232;2023-04-29T09:17:07;96723.41;;;18.99;69.50
79465;BME280;68932;47.410;8.232;2023-04-29T09:19:35;96718.35;;;19.04;69.03
79465;BME280;68932;47.410;8.232;2023-04-29T09:22:03;96719.98;;;19.12;69.07
79465;BME280;68932;47.410;8.232;2023-04-29T09:24:31;96714.33;;;19.22;68.80
79465;BME280;68932;47.410;8.232;2023-04-29T09:26:58;96714.52;;;19.32;67.94
79465;BME280;68932;47.410;8.232;2023-04-29T09:29:26;96712.55;;;19.42;67.44
79465;BME280;68932;47.410;8.232;2023-04-29T09:31:53;96714.86;;;19.46;66.87
79465;BME280;68932;47.410;8.232;2023-04-29T09:34:30;96715.98;;;19.46;66.23
79465;BME280;68932;47.410;8.232;2023-04-29T09:36:58;96713.30;;;19.51;67.39
79465;BME280;68932;47.410;8.232;2023-04-29T09:39:25;96708.01;;;19.58;67.19
79465;BME280;68932;47.410;8.232;2023-04-29T09:41:59;96708.89;;;19.65;67.16
79465;BME280;68932;47.410;8.232;2023-04-29T09:44:27;96702.79;;;19.74;67.30
79465;BME280;68932;47.410;8.232;2023-04-29T09:46:55;96705.52;;;19.82;67.17
79465;BME280;68932;47.410;8.232;2023-04-29T09:49:24;96705.61;;;19.82;66.67
79465;BME280;68932;47.410;8.232;2023-04-29T09:51:56;96706.60;;;19.78;65.90
79465;BME280;68932;47.410;8.232;2023-04-29T09:54:23;96706.11;;;19.68;64.06
79465;BME280;68932;47.410;8.232;2023-04-29T09:56:51;96707.70;;;19.52;63.72
79465;BME280;68932;47.410;8.232;2023-04-29T09:59:19;96709.67;;;19.41;63.68
79465;BME280;68932;47.410;8.232;2023-04-29T10:01:47;96709.80;;;19.35;64.47
79465;BME280;68932;47.410;8.232;2023-04-29T10:04:16;96704.41;;;19.30;64.38
79465;BME280;68932;47.410;8.232;2023-04-29T10:06:44;96703.58;;;19.25;64.38
79465;BME280;68932;47.410;8.232;2023-04-29T10:09:13;96701.83;;;19.15;64.58
79465;BME280;68932;47.410;8.232;2023-04-29T10:11:40;96699.34;;;19.09;64.40
79465;BME280;68932;47.410;8.232;2023-04-29T10:14:12;96703.16;;;19.06;64.45
79465;BME280;68932;47.410;8.232;2023-04-29T10:16:45;96701.16;;;19.02;64.69
79465;BME280;68932;47.410;8.232;2023-04-29T10:19:11;96702.00;;;18.97;64.73
79465;BME280;68932;47.410;8.232;2023-04-29T10:21:40;96700.06;;;18.93;64.97
79465;BME280;68932;47.410;8.232;2023-04-29T10:24:07;96698.27;;;18.90;64.91
79465;BME280;68932;47.410;8.232;2023-04-29T10:26:38;96698.30;;;18.88;65.33
79465;BME280;68932;47.410;8.232;2023-04-29T10:29:05;96700.03;;;18.90;64.94
79465;BME280;68932;47.410;8.232;2023-04-29T10:31:34;96695.23;;;18.99;65.02
79465;BME280;68932;47.410;8.232;2023-04-29T10:34:02;96687.05;;;19.07;64.87
79465;BME280;68932;47.410;8.232;2023-04-29T10:36:29;96684.39;;;19.12;65.07
79465;BME280;68932;47.410;8.232;2023-04-29T10:38:59;96678.77;;;19.17;65.37
79465;BME280;68932;47.410;8.232;2023-04-29T10:41:32;96675.73;;;19.29;65.08
79465;BME280;68932;47.410;8.232;2023-04-29T10:44:00;96675.23;;;19.44;64.82
79465;BME280;68932;47.410;8.232;2023-04-29T10:46:27;96676.20;;;19.61;64.49
79465;BME280;68932;47.410;8.232;2023-04-29T10:48:59;96675.06;;;19.77;63.95
79465;BME280;68932;47.410;8.232;2023-04-29T10:51:31;96672.29;;;19.89;62.65
79465;BME280;68932;47.410;8.232;2023-04-29T10:54:00;96673.60;;;19.97;62.50
79465;BME280;68932;47.410;8.232;2023-04-29T10:56:36;96674.77;;;20.08;62.42
79465;BME280;68932;47.410;8.232;2023-04-29T10:59:04;96672.95;;;20.16;62.18
79465;BME280;68932;47.410;8.232;2023-04-29T11:01:45;96670.94;;;20.20;61.81
79465;BME280;68932;47.410;8.232;2023-04-29T11:04:13;96668.85;;;20.21;61.14
79465;BME280;68932;47.410;8.232;2023-04-29T11:06:43;96672.38;;;20.17;60.46
79465;BME280;68932;47.410;8.232;2023-04-29T11:09:13;96669.88;;;20.13;60.47
79465;BME280;68932;47.410;8.232;2023-04-29T11:12:00;96666.55;;;20.08;60.02
79465;BME280;68932;47.410;8.232;2023-04-29T11:14:30;96670.94;;;20.18;61.11
79465;BME280;68932;47.410;8.232;2023-04-29T11:16:58;96666.07;;;20.22;59.11
79465;BME280;68932;47.410;8.232;2023-04-29T11:19:31;96663.73;;;20.17;58.44
79465;BME280;68932;47.410;8.232;2023-04-29T11:22:13;96662.44;;;20.10;58.01
79465;BME280;68932;47.410;8.232;2023-04-29T11:24:54;96656.15;;;20.02;57.82
79465;BME280;68932;47.410;8.232;2023-04-29T11:27:22;96653.14;;;20.09;57.94
79465;BME280;68932;47.410;8.232;2023-04-29T11:29:51;96655.05;;;20.23;57.31
79465;BME280;68932;47.410;8.232;2023-04-29T11:32:21;96657.52;;;20.28;56.54
79465;BME280;68932;47.410;8.232;2023-04-29T11:34:48;96659.97;;;20.21;54.73
79465;BME280;68932;47.410;8.232;2023-04-29T11:37:20;96660.05;;;20.04;54.06
79465;BME280;68932;47.410;8.232;2023-04-29T11:39:47;96659.38;;;19.86;54.61
79465;BME280;68932;47.410;8.232;2023-04-29T11:42:19;96664.39;;;19.72;55.70
79465;BME280;68932;47.410;8.232;2023-04-29T11:44:46;96663.35;;;19.63;56.38
79465;BME280;68932;47.410;8.232;2023-04-29T11:47:13;96658.67;;;19.56;56.43
79465;BME280;68932;47.410;8.232;2023-04-29T11:49:40;96652.27;;;19.46;56.77
79465;BME280;68932;47.410;8.232;2023-04-29T11:52:07;96648.61;;;19.37;56.85
79465;BME280;68932;47.410;8.232;2023-04-29T11:54:34;96654.96;;;19.26;56.39
79465;BME280;68932;47.410;8.232;2023-04-29T11:57:01;96657.10;;;19.17;57.22
79465;BME280;68932;47.410;8.232;2023-04-29T11:59:28;96656.45;;;19.14;56.94
79465;BME280;68932;47.410;8.232;2023-04-29T12:01:58;96654.13;;;19.27;57.54
79465;BME280;68932;47.410;8.232;2023-04-29T12:04:25;96650.64;;;19.48;57.91
79465;BME280;68932;47.410;8.232;2023-04-29T12:06:52;96651.27;;;19.69;58.29
79465;BME280;68932;47.410;8.232;2023-04-29T12:09:19;96652.83;;;19.74;57.84
79465;BME280;68932;47.410;8.232;2023-04-29T12:11:46;96653.14;;;19.71;58.18
79465;BME280;68932;47.410;8.232;2023-04-29T12:14:14;96653.34;;;19.69;58.26
79465;BME280;68932;47.410;8.232;2023-04-29T12:16:41;96657.88;;;19.65;57.43
79465;BME280;68932;47.410;8.232;2023-04-29T12:19:08;96654.58;;;19.59;57.14
79465;BME280;68932;47.410;8.232;2023-04-29T12:21:35;96653.61;;;19.61;58.26
79465;BME280;68932;47.410;8.232;2023-04-29T12:24:03;96648.67;;;19.79;58.75
79465;BME280;68932;47.410;8.232;2023-04-29T12:26:30;96646.08;;;20.03;58.20
79465;BME280;68932;47.410;8.232;2023-04-29T12:28:58;96643.70;;;20.28;56.25
79465;BME280;68932;47.410;8.232;2023-04-29T12:31:33;96642.36;;;20.44;53.90
79465;BME280;68932;47.410;8.232;2023-04-29T12:34:03;96647.85;;;20.49;52.14
79465;BME280;68932;47.410;8.232;2023-04-29T12:36:30;96646.27;;;20.51;50.97
79465;BME280;68932;47.410;8.232;2023-04-29T12:38:58;96642.11;;;20.52;49.99
79465;BME280;68932;47.410;8.232;2023-04-29T12:41:39;96641.30;;;20.56;51.21
79465;BME280;68932;47.410;8.232;2023-04-29T12:44:07;96642.73;;;20.63;50.43
79465;BME280;68932;47.410;8.232;2023-04-29T12:46:36;96642.65;;;20.55;49.55
79465;BME280;68932;47.410;8.232;2023-04-29T12:49:03;96642.64;;;20.59;50.88
79465;BME280;68932;47.410;8.232;2023-04-29T12:51:30;96640.38;;;20.68;50.91
79465;BME280;68932;47.410;8.232;2023-04-29T12:53:58;96639.58;;;20.77;50.44
79465;BME280;68932;47.410;8.232;2023-04-29T12:56:25;96645.69;;;20.87;50.64
79465;BME280;68932;47.410;8.232;2023-04-29T12:58:52;96643.81;;;20.92;48.35
79465;BME280;68932;47.410;8.232;2023-04-29T13:01:19;96645.43;;;20.96;48.37
79465;BME280;68932;47.410;8.232;2023-04-29T13:03:46;96646.36;;;21.02;48.35